sensor_id;sensor_type;location;lat;lon;timestamp;P1;P2;P0
65012;PMS5003;51715;39.432;-77.518;2022-09-03T00:00:17;5;5;
65012;PMS5003;51715;39.432;-77.518;2022-09-03T00:02:46;5;5;
65012;PMS5003;51715;39.432;-77.518;2022-09-03T00:05:23;8;7;
65012;PMS5003;51715;39.432;-77.518;2022-09-03T00:08:02;6;6;
65012;PMS5003;51715;39.432;-77.518;2022-09-03T00:10:39;6;6;
65012;PMS5003;51715;39.432;-77.518;2022-09-03T00:13:15;5;5;
65012;PMS5003;51715;39.432;-77.518;2022-09-03T00:15:49;11;9;
65012;PMS5003;51715;39.432;-77.518;2022-09-03T00:18:19;6;5;
65012;PMS5003;51715;39.432;-77.518;2022-09-03T00:20:50;7;7;
65012;PMS5003;51715;39.432;-77.518;2022-09-03T00:23:22;8;6;
65012;PMS5003;51715;39.432;-77.518;2022-09-03T00:25:55;7;7;
65012;PMS5003;51715;39.432;-77.518;2022-09-03T00:28:31;7;7;
65012;PMS5003;51715;39.432;-77.518;2022-09-03T00:31:05;10;7;
65012;PMS5003;51715;39.432;-77.518;2022-09-03T00:33:38;6;6;
65012;PMS5003;51715;39.432;-77.518;2022-09-03T00:36:11;7;7;
65012;PMS5003;51715;39.432;-77.518;2022-09-03T00:38:44;8;8;
65012;PMS5003;51715;39.432;-77.518;2022-09-03T00:41:16;7;7;
65012;PMS5003;51715;39.432;-77.518;2022-09-03T00:43:57;7;7;
65012;PMS5003;51715;39.432;-77.518;2022-09-03T00:46:41;7;5;
65012;PMS5003;51715;39.432;-77.518;2022-09-03T00:49:20;5;5;
65012;PMS5003;51715;39.432;-77.518;2022-09-03T00:51:58;5;5;
65012;PMS5003;51715;39.432;-77.518;2022-09-03T00:54:35;6;6;
65012;PMS5003;51715;39.432;-77.518;2022-09-03T00:57:17;4;4;
65012;PMS5003;51715;39.432;-77.518;2022-09-03T00:59:58;5;5;
65012;PMS5003;51715;39.432;-77.518;2022-09-03T01:02:35;6;6;
65012;PMS5003;51715;39.432;-77.518;2022-09-03T01:05:19;6;5;
65012;PMS5003;51715;39.432;-77.518;2022-09-03T01:08:00;5;5;
65012;PMS5003;51715;39.432;-77.518;2022-09-03T01:10:39;5;5;
65012;PMS5003;51715;39.432;-77.518;2022-09-03T01:13:16;6;4;
65012;PMS5003;51715;39.432;-77.518;2022-09-03T01:15:51;5;5;
65012;PMS5003;51715;39.432;-77.518;2022-09-03T01:18:33;7;7;
65012;PMS5003;51715;39.432;-77.518;2022-09-03T01:21:14;7;7;
65012;PMS5003;51715;39.432;-77.518;2022-09-03T01:24:03;6;6;
65012;PMS5003;51715;39.432;-77.518;2022-09-03T01:26:48;7;6;
65012;PMS5003;51715;39.432;-77.518;2022-09-03T01:29:30;5;5;
65012;PMS5003;51715;39.432;-77.518;2022-09-03T01:32:07;7;7;
65012;PMS5003;51715;39.432;-77.518;2022-09-03T01:34:44;9;9;
65012;PMS5003;51715;39.432;-77.518;2022-09-03T01:37:22;6;4;
65012;PMS5003;51715;39.432;-77.518;2022-09-03T01:40:02;5;5;
65012;PMS5003;51715;39.432;-77.518;2022-09-03T01:42:40;5;5;
65012;PMS5003;51715;39.432;-77.518;2022-09-03T01:45:22;5;5;
65012;PMS5003;51715;39.432;-77.518;2022-09-03T01:48:03;5;5;
65012;PMS5003;51715;39.432;-77.518;2022-09-03T01:50:48;4;4;
65012;PMS5003;51715;39.432;-77.518;2022-09-03T01:53:26;5;5;
65012;PMS5003;51715;39.432;-77.518;2022-09-03T01:56:10;7;7;
65012;PMS5003;51715;39.432;-77.518;2022-09-03T01:58:53;5;5;
65012;PMS5003;51715;39.432;-77.518;2022-09-03T02:01:29;6;6;
65012;PMS5003;51715;39.432;-77.518;2022-09-03T02:04:01;5;5;
65012;PMS5003;51715;39.432;-77.518;2022-09-03T02:06:39;7;7;
65012;PMS5003;51715;39.432;-77.518;2022-09-03T02:09:07;5;5;
65012;PMS5003;51715;39.432;-77.518;2022-09-03T02:11:36;4;4;
65012;PMS5003;51715;39.432;-77.518;2022-09-03T02:14:04;3;3;
65012;PMS5003;51715;39.432;-77.518;2022-09-03T02:16:33;3;3;
65012;PMS5003;51715;39.432;-77.518;2022-09-03T02:19:02;4;4;
65012;PMS5003;51715;39.432;-77.518;2022-09-03T02:21:34;3;3;
65012;PMS5003;51715;39.432;-77.518;2022-09-03T02:24:04;5;5;
65012;PMS5003;51715;39.432;-77.518;2022-09-03T02:26:34;8;5;
65012;PMS5003;51715;39.432;-77.518;2022-09-03T02:29:03;5;5;
65012;PMS5003;51715;39.432;-77.518;2022-09-03T02:31:31;4;4;
65012;PMS5003;51715;39.432;-77.518;2022-09-03T02:34:00;5;5;
65012;PMS5003;51715;39.432;-77.518;2022-09-03T02:36:30;5;4;
65012;PMS5003;51715;39.432;-77.518;2022-09-03T02:39:00;5;4;
65012;PMS5003;51715;39.432;-77.518;2022-09-03T02:41:29;5;4;
65012;PMS5003;51715;39.432;-77.518;2022-09-03T02:43:58;6;6;
65012;PMS5003;51715;39.432;-77.518;2022-09-03T02:46:31;4;4;
65012;PMS5003;51715;39.432;-77.518;2022-09-03T02:49:03;4;4;
65012;PMS5003;51715;39.432;-77.518;2022-09-03T02:51:33;5;4;
65012;PMS5003;51715;39.432;-77.518;2022-09-03T02:54:02;5;5;
65012;PMS5003;51715;39.432;-77.518;2022-09-03T02:56:30;4;4;
65012;PMS5003;51715;39.432;-77.518;2022-09-03T02:58:59;5;5;
65012;PMS5003;51715;39.432;-77.518;2022-09-03T03:01:28;4;4;
65012;PMS5003;51715;39.432;-77.518;2022-09-03T03:03:57;4;4;
65012;PMS5003;51715;39.432;-77.518;2022-09-03T03:06:25;4;4;
65012;PMS5003;51715;39.432;-77.518;2022-09-03T03:08:54;4;4;
65012;PMS5003;51715;39.432;-77.518;2022-09-03T03:11:22;5;5;
65012;PMS5003;51715;39.432;-77.518;2022-09-03T03:13:50;3;3;
65012;PMS5003;51715;39.432;-77.518;2022-09-03T03:16:19;7;6;
65012;PMS5003;51715;39.432;-77.518;2022-09-03T03:18:47;4;4;
65012;PMS5003;51715;39.432;-77.518;2022-09-03T03:21:16;5;4;
65012;PMS5003;51715;39.432;-77.518;2022-09-03T03:23:45;3;2;
65012;PMS5003;51715;39.432;-77.518;2022-09-03T03:26:14;4;4;
65012;PMS5003;51715;39.432;-77.518;2022-09-03T03:28:44;4;4;
65012;PMS5003;51715;39.432;-77.518;2022-09-03T03:31:14;2;2;
65012;PMS5003;51715;39.432;-77.518;2022-09-03T03:33:44;5;4;
65012;PMS5003;51715;39.432;-77.518;2022-09-03T03:36:16;2;2;
65012;PMS5003;51715;39.432;-77.518;2022-09-03T03:38:45;3;3;
65012;PMS5003;51715;39.432;-77.518;2022-09-03T03:41:14;4;4;
65012;PMS5003;51715;39.432;-77.518;2022-09-03T03:43:43;3;3;
65012;PMS5003;51715;39.432;-77.518;2022-09-03T03:46:12;3;3;
65012;PMS5003;51715;39.432;-77.518;2022-09-03T03:48:40;4;4;
65012;PMS5003;51715;39.432;-77.518;2022-09-03T03:51:09;2;2;
65012;PMS5003;51715;39.432;-77.518;2022-09-03T03:53:37;2;2;
65012;PMS5003;51715;39.432;-77.518;2022-09-03T03:56:06;2;2;
65012;PMS5003;51715;39.432;-77.518;2022-09-03T03:58:36;3;3;
65012;PMS5003;51715;39.432;-77.518;2022-09-03T04:05:17;1;1;
65012;PMS5003;51715;39.432;-77.518;2022-09-03T04:07:47;4;4;
65012;PMS5003;51715;39.432;-77.518;2022-09-03T04:10:17;4;3;
65012;PMS5003;51715;39.432;-77.518;2022-09-03T04:12:45;2;2;
65012;PMS5003;51715;39.432;-77.518;2022-09-03T04:15:14;4;4;
65012;PMS5003;51715;39.432;-77.518;2022-09-03T04:17:43;4;4;
65012;PMS5003;51715;39.432;-77.518;2022-09-03T04:20:12;4;4;
65012;PMS5003;51715;39.432;-77.518;2022-09-03T04:22:40;3;3;
65012;PMS5003;51715;39.432;-77.518;2022-09-03T04:25:09;3;3;
65012;PMS5003;51715;39.432;-77.518;2022-09-03T04:27:38;3;3;
65012;PMS5003;51715;39.432;-77.518;2022-09-03T04:30:06;5;3;
65012;PMS5003;51715;39.432;-77.518;2022-09-03T04:32:35;2;2;
65012;PMS5003;51715;39.432;-77.518;2022-09-03T04:35:03;3;3;
65012;PMS5003;51715;39.432;-77.518;2022-09-03T04:37:31;3;3;
65012;PMS5003;51715;39.432;-77.518;2022-09-03T04:39:59;3;3;
65012;PMS5003;51715;39.432;-77.518;2022-09-03T04:42:29;4;4;
65012;PMS5003;51715;39.432;-77.518;2022-09-03T04:44:57;4;4;
65012;PMS5003;51715;39.432;-77.518;2022-09-03T04:47:25;2;2;
65012;PMS5003;51715;39.432;-77.518;2022-09-03T04:49:54;4;2;
65012;PMS5003;51715;39.432;-77.518;2022-09-03T04:52:22;1;1;
65012;PMS5003;51715;39.432;-77.518;2022-09-03T04:54:50;1;1;
65012;PMS5003;51715;39.432;-77.518;2022-09-03T04:57:18;5;5;
65012;PMS5003;51715;39.432;-77.518;2022-09-03T04:59:46;3;2;
65012;PMS5003;51715;39.432;-77.518;2022-09-03T05:02:15;3;3;
65012;PMS5003;51715;39.432;-77.518;2022-09-03T05:04:43;2;2;
65012;PMS5003;51715;39.432;-77.518;2022-09-03T05:07:12;3;2;
65012;PMS5003;51715;39.432;-77.518;2022-09-03T05:09:40;1;1;
65012;PMS5003;51715;39.432;-77.518;2022-09-03T05:12:09;3;3;
65012;PMS5003;51715;39.432;-77.518;2022-09-03T05:14:36;2;2;
65012;PMS5003;51715;39.432;-77.518;2022-09-03T05:17:04;4;4;
65012;PMS5003;51715;39.432;-77.518;2022-09-03T05:19:32;1;1;
65012;PMS5003;51715;39.432;-77.518;2022-09-03T05:22:00;2;2;
65012;PMS5003;51715;39.432;-77.518;2022-09-03T05:24:29;2;2;
65012;PMS5003;51715;39.432;-77.518;2022-09-03T05:26:57;4;2;
65012;PMS5003;51715;39.432;-77.518;2022-09-03T05:29:25;1;1;
65012;PMS5003;51715;39.432;-77.518;2022-09-03T05:31:53;4;3;
65012;PMS5003;51715;39.432;-77.518;2022-09-03T05:34:21;2;2;
65012;PMS5003;51715;39.432;-77.518;2022-09-03T05:36:49;2;2;
65012;PMS5003;51715;39.432;-77.518;2022-09-03T05:39:18;3;1;
65012;PMS5003;51715;39.432;-77.518;2022-09-03T05:41:46;1;1;
65012;PMS5003;51715;39.432;-77.518;2022-09-03T05:44:14;2;2;
65012;PMS5003;51715;39.432;-77.518;2022-09-03T05:46:43;4;4;
65012;PMS5003;51715;39.432;-77.518;2022-09-03T05:49:11;2;2;
65012;PMS5003;51715;39.432;-77.518;2022-09-03T05:51:40;4;3;
65012;PMS5003;51715;39.432;-77.518;2022-09-03T05:54:08;3;3;
65012;PMS5003;51715;39.432;-77.518;2022-09-03T05:56:37;3;3;
65012;PMS5003;51715;39.432;-77.518;2022-09-03T05:59:07;3;3;
65012;PMS5003;51715;39.432;-77.518;2022-09-03T06:01:36;2;2;
65012;PMS5003;51715;39.432;-77.518;2022-09-03T06:04:07;2;2;
65012;PMS5003;51715;39.432;-77.518;2022-09-03T06:06:38;3;3;
65012;PMS5003;51715;39.432;-77.518;2022-09-03T06:09:08;5;3;
65012;PMS5003;51715;39.432;-77.518;2022-09-03T06:11:39;5;3;
65012;PMS5003;51715;39.432;-77.518;2022-09-03T06:14:08;2;2;
65012;PMS5003;51715;39.432;-77.518;2022-09-03T06:16:38;4;4;
65012;PMS5003;51715;39.432;-77.518;2022-09-03T06:19:08;3;2;
65012;PMS5003;51715;39.432;-77.518;2022-09-03T06:21:38;2;2;
65012;PMS5003;51715;39.432;-77.518;2022-09-03T06:24:08;4;2;
65012;PMS5003;51715;39.432;-77.518;2022-09-03T06:26:37;3;2;
65012;PMS5003;51715;39.432;-77.518;2022-09-03T06:29:05;3;3;
65012;PMS5003;51715;39.432;-77.518;2022-09-03T06:31:34;3;3;
65012;PMS5003;51715;39.432;-77.518;2022-09-03T06:34:02;3;3;
65012;PMS5003;51715;39.432;-77.518;2022-09-03T06:36:32;4;4;
65012;PMS5003;51715;39.432;-77.518;2022-09-03T06:39:00;2;2;
65012;PMS5003;51715;39.432;-77.518;2022-09-03T06:41:29;4;4;
65012;PMS5003;51715;39.432;-77.518;2022-09-03T06:43:59;3;3;
65012;PMS5003;51715;39.432;-77.518;2022-09-03T06:46:28;3;3;
65012;PMS5003;51715;39.432;-77.518;2022-09-03T06:48:57;3;3;
65012;PMS5003;51715;39.432;-77.518;2022-09-03T06:51:27;2;2;
65012;PMS5003;51715;39.432;-77.518;2022-09-03T06:53:58;3;3;
65012;PMS5003;51715;39.432;-77.518;2022-09-03T06:56:29;2;2;
65012;PMS5003;51715;39.432;-77.518;2022-09-03T06:58:58;3;3;
65012;PMS5003;51715;39.432;-77.518;2022-09-03T07:01:30;5;3;
65012;PMS5003;51715;39.432;-77.518;2022-09-03T07:04:00;5;3;
65012;PMS5003;51715;39.432;-77.518;2022-09-03T07:06:31;3;3;
65012;PMS5003;51715;39.432;-77.518;2022-09-03T07:09:00;1;1;
65012;PMS5003;51715;39.432;-77.518;2022-09-03T07:11:29;3;3;
65012;PMS5003;51715;39.432;-77.518;2022-09-03T07:13:58;2;2;
65012;PMS5003;51715;39.432;-77.518;2022-09-03T07:16:28;3;3;
65012;PMS5003;51715;39.432;-77.518;2022-09-03T07:18:58;2;2;
65012;PMS5003;51715;39.432;-77.518;2022-09-03T07:21:28;3;3;
65012;PMS5003;51715;39.432;-77.518;2022-09-03T07:23:57;4;4;
65012;PMS5003;51715;39.432;-77.518;2022-09-03T07:26:27;4;4;
65012;PMS5003;51715;39.432;-77.518;2022-09-03T07:28:56;4;2;
65012;PMS5003;51715;39.432;-77.518;2022-09-03T07:31:35;2;2;
65012;PMS5003;51715;39.432;-77.518;2022-09-03T07:34:05;4;3;
65012;PMS5003;51715;39.432;-77.518;2022-09-03T07:36:36;3;3;
65012;PMS5003;51715;39.432;-77.518;2022-09-03T07:39:05;2;2;
65012;PMS5003;51715;39.432;-77.518;2022-09-03T07:41:35;2;2;
65012;PMS5003;51715;39.432;-77.518;2022-09-03T07:44:04;3;3;
65012;PMS5003;51715;39.432;-77.518;2022-09-03T07:46:34;2;2;
65012;PMS5003;51715;39.432;-77.518;2022-09-03T07:49:04;3;3;
65012;PMS5003;51715;39.432;-77.518;2022-09-03T07:51:34;3;3;
65012;PMS5003;51715;39.432;-77.518;2022-09-03T07:54:04;4;4;
65012;PMS5003;51715;39.432;-77.518;2022-09-03T07:56:33;5;3;
65012;PMS5003;51715;39.432;-77.518;2022-09-03T07:59:03;4;3;
65012;PMS5003;51715;39.432;-77.518;2022-09-03T08:01:33;3;3;
65012;PMS5003;51715;39.432;-77.518;2022-09-03T08:04:04;2;2;
65012;PMS5003;51715;39.432;-77.518;2022-09-03T08:06:33;3;3;
65012;PMS5003;51715;39.432;-77.518;2022-09-03T08:09:03;5;5;
65012;PMS5003;51715;39.432;-77.518;2022-09-03T08:11:35;3;2;
65012;PMS5003;51715;39.432;-77.518;2022-09-03T08:14:06;4;4;
65012;PMS5003;51715;39.432;-77.518;2022-09-03T08:16:37;1;1;
65012;PMS5003;51715;39.432;-77.518;2022-09-03T08:19:05;5;4;
65012;PMS5003;51715;39.432;-77.518;2022-09-03T08:21:34;3;3;
65012;PMS5003;51715;39.432;-77.518;2022-09-03T08:24:03;4;2;
65012;PMS5003;51715;39.432;-77.518;2022-09-03T08:26:32;3;3;
65012;PMS5003;51715;39.432;-77.518;2022-09-03T08:29:02;2;2;
65012;PMS5003;51715;39.432;-77.518;2022-09-03T08:31:31;4;3;
65012;PMS5003;51715;39.432;-77.518;2022-09-03T08:34:01;4;4;
65012;PMS5003;51715;39.432;-77.518;2022-09-03T08:36:33;4;4;
65012;PMS5003;51715;39.432;-77.518;2022-09-03T08:39:02;2;2;
65012;PMS5003;51715;39.432;-77.518;2022-09-03T08:41:35;2;2;
65012;PMS5003;51715;39.432;-77.518;2022-09-03T08:44:18;5;4;
65012;PMS5003;51715;39.432;-77.518;2022-09-03T08:46:54;4;4;
65012;PMS5003;51715;39.432;-77.518;2022-09-03T08:49:27;1;1;
65012;PMS5003;51715;39.432;-77.518;2022-09-03T08:52:01;5;3;
65012;PMS5003;51715;39.432;-77.518;2022-09-03T08:54:33;4;2;
65012;PMS5003;51715;39.432;-77.518;2022-09-03T08:57:03;4;4;
65012;PMS5003;51715;39.432;-77.518;2022-09-03T08:59:35;5;4;
65012;PMS5003;51715;39.432;-77.518;2022-09-03T09:02:08;5;3;
65012;PMS5003;51715;39.432;-77.518;2022-09-03T09:04:51;4;4;
65012;PMS5003;51715;39.432;-77.518;2022-09-03T09:07:26;4;4;
65012;PMS5003;51715;39.432;-77.518;2022-09-03T09:10:01;4;3;
65012;PMS5003;51715;39.432;-77.518;2022-09-03T09:12:40;2;0;
65012;PMS5003;51715;39.432;-77.518;2022-09-03T09:15:16;3;3;
65012;PMS5003;51715;39.432;-77.518;2022-09-03T09:17:58;2;2;
65012;PMS5003;51715;39.432;-77.518;2022-09-03T09:20:37;3;3;
65012;PMS5003;51715;39.432;-77.518;2022-09-03T09:23:12;4;4;
65012;PMS5003;51715;39.432;-77.518;2022-09-03T09:25:49;4;4;
65012;PMS5003;51715;39.432;-77.518;2022-09-03T09:28:20;2;2;
65012;PMS5003;51715;39.432;-77.518;2022-09-03T09:30:53;4;4;
65012;PMS5003;51715;39.432;-77.518;2022-09-03T09:33:23;3;3;
65012;PMS5003;51715;39.432;-77.518;2022-09-03T09:35:51;2;2;
65012;PMS5003;51715;39.432;-77.518;2022-09-03T09:38:26;5;2;
65012;PMS5003;51715;39.432;-77.518;2022-09-03T09:40:55;5;2;
65012;PMS5003;51715;39.432;-77.518;2022-09-03T09:43:33;2;2;
65012;PMS5003;51715;39.432;-77.518;2022-09-03T09:46:05;3;3;
65012;PMS5003;51715;39.432;-77.518;2022-09-03T09:48:38;4;4;
65012;PMS5003;51715;39.432;-77.518;2022-09-03T09:51:18;3;3;
65012;PMS5003;51715;39.432;-77.518;2022-09-03T09:53:58;2;1;
65012;PMS5003;51715;39.432;-77.518;2022-09-03T09:56:28;3;3;
65012;PMS5003;51715;39.432;-77.518;2022-09-03T09:59:04;2;2;
65012;PMS5003;51715;39.432;-77.518;2022-09-03T10:01:35;2;1;
65012;PMS5003;51715;39.432;-77.518;2022-09-03T10:04:07;1;1;
65012;PMS5003;51715;39.432;-77.518;2022-09-03T10:06:39;2;2;
65012;PMS5003;51715;39.432;-77.518;2022-09-03T10:09:10;5;3;
65012;PMS5003;51715;39.432;-77.518;2022-09-03T10:11:41;3;2;
65012;PMS5003;51715;39.432;-77.518;2022-09-03T10:14:16;2;2;
65012;PMS5003;51715;39.432;-77.518;2022-09-03T10:16:49;3;3;
65012;PMS5003;51715;39.432;-77.518;2022-09-03T10:19:27;6;5;
65012;PMS5003;51715;39.432;-77.518;2022-09-03T10:22:09;4;2;
65012;PMS5003;51715;39.432;-77.518;2022-09-03T10:24:47;2;2;
65012;PMS5003;51715;39.432;-77.518;2022-09-03T10:27:22;1;1;
65012;PMS5003;51715;39.432;-77.518;2022-09-03T10:29:50;2;2;
65012;PMS5003;51715;39.432;-77.518;2022-09-03T10:32:21;3;3;
65012;PMS5003;51715;39.432;-77.518;2022-09-03T10:35:05;4;3;
65012;PMS5003;51715;39.432;-77.518;2022-09-03T10:37:43;4;4;
65012;PMS5003;51715;39.432;-77.518;2022-09-03T10:40:19;3;3;
65012;PMS5003;51715;39.432;-77.518;2022-09-03T10:42:59;3;3;
65012;PMS5003;51715;39.432;-77.518;2022-09-03T10:45:44;3;2;
65012;PMS5003;51715;39.432;-77.518;2022-09-03T10:48:27;3;3;
65012;PMS5003;51715;39.432;-77.518;2022-09-03T10:51:15;2;2;
65012;PMS5003;51715;39.432;-77.518;2022-09-03T10:53:50;4;4;
65012;PMS5003;51715;39.432;-77.518;2022-09-03T10:56:34;3;3;
65012;PMS5003;51715;39.432;-77.518;2022-09-03T10:59:14;3;3;
65012;PMS5003;51715;39.432;-77.518;2022-09-03T11:02:00;2;2;
65012;PMS5003;51715;39.432;-77.518;2022-09-03T11:04:43;6;5;
65012;PMS5003;51715;39.432;-77.518;2022-09-03T11:07:19;4;3;
65012;PMS5003;51715;39.432;-77.518;2022-09-03T11:09:51;3;3;
65012;PMS5003;51715;39.432;-77.518;2022-09-03T11:12:28;4;3;
65012;PMS5003;51715;39.432;-77.518;2022-09-03T11:15:02;3;3;
65012;PMS5003;51715;39.432;-77.518;2022-09-03T11:17:36;3;3;
65012;PMS5003;51715;39.432;-77.518;2022-09-03T11:20:09;3;3;
65012;PMS5003;51715;39.432;-77.518;2022-09-03T11:22:42;3;2;
65012;PMS5003;51715;39.432;-77.518;2022-09-03T11:25:13;4;4;
65012;PMS5003;51715;39.432;-77.518;2022-09-03T11:27:48;2;2;
65012;PMS5003;51715;39.432;-77.518;2022-09-03T11:30:23;4;4;
65012;PMS5003;51715;39.432;-77.518;2022-09-03T11:32:58;4;3;
65012;PMS5003;51715;39.432;-77.518;2022-09-03T11:35:37;3;3;
65012;PMS5003;51715;39.432;-77.518;2022-09-03T11:38:17;2;2;
65012;PMS5003;51715;39.432;-77.518;2022-09-03T11:40:56;4;4;
65012;PMS5003;51715;39.432;-77.518;2022-09-03T11:43:28;3;3;
65012;PMS5003;51715;39.432;-77.518;2022-09-03T11:46:01;3;3;
65012;PMS5003;51715;39.432;-77.518;2022-09-03T11:48:34;2;2;
65012;PMS5003;51715;39.432;-77.518;2022-09-03T11:51:39;2;2;
65012;PMS5003;51715;39.432;-77.518;2022-09-03T11:54:23;1;1;
65012;PMS5003;51715;39.432;-77.518;2022-09-03T11:57:03;3;3;
65012;PMS5003;51715;39.432;-77.518;2022-09-03T11:59:37;3;3;
65012;PMS5003;51715;39.432;-77.518;2022-09-03T12:02:11;3;3;
65012;PMS5003;51715;39.432;-77.518;2022-09-03T12:04:53;2;2;
65012;PMS5003;51715;39.432;-77.518;2022-09-03T12:07:39;2;2;
65012;PMS5003;51715;39.432;-77.518;2022-09-03T12:10:24;2;2;
65012;PMS5003;51715;39.432;-77.518;2022-09-03T12:13:04;3;3;
65012;PMS5003;51715;39.432;-77.518;2022-09-03T12:15:50;3;3;
65012;PMS5003;51715;39.432;-77.518;2022-09-03T12:18:28;3;3;
65012;PMS5003;51715;39.432;-77.518;2022-09-03T12:21:00;3;3;
65012;PMS5003;51715;39.432;-77.518;2022-09-03T12:23:32;4;4;
65012;PMS5003;51715;39.432;-77.518;2022-09-03T12:26:06;3;2;
65012;PMS5003;51715;39.432;-77.518;2022-09-03T12:28:37;1;1;
65012;PMS5003;51715;39.432;-77.518;2022-09-03T12:31:07;2;2;
65012;PMS5003;51715;39.432;-77.518;2022-09-03T12:33:41;3;3;
65012;PMS5003;51715;39.432;-77.518;2022-09-03T12:36:09;4;4;
65012;PMS5003;51715;39.432;-77.518;2022-09-03T12:38:40;5;4;
65012;PMS5003;51715;39.432;-77.518;2022-09-03T12:41:19;2;2;
65012;PMS5003;51715;39.432;-77.518;2022-09-03T12:43:50;4;3;
65012;PMS5003;51715;39.432;-77.518;2022-09-03T12:46:22;6;4;
65012;PMS5003;51715;39.432;-77.518;2022-09-03T12:48:53;6;4;
65012;PMS5003;51715;39.432;-77.518;2022-09-03T12:51:23;4;4;
65012;PMS5003;51715;39.432;-77.518;2022-09-03T12:53:52;5;5;
65012;PMS5003;51715;39.432;-77.518;2022-09-03T12:56:20;3;3;
65012;PMS5003;51715;39.432;-77.518;2022-09-03T12:58:50;3;3;
65012;PMS5003;51715;39.432;-77.518;2022-09-03T13:01:25;4;4;
65012;PMS5003;51715;39.432;-77.518;2022-09-03T13:03:58;2;2;
65012;PMS5003;51715;39.432;-77.518;2022-09-03T13:06:32;3;3;
65012;PMS5003;51715;39.432;-77.518;2022-09-03T13:09:11;4;3;
65012;PMS5003;51715;39.432;-77.518;2022-09-03T13:11:45;2;2;
65012;PMS5003;51715;39.432;-77.518;2022-09-03T13:14:13;3;3;
65012;PMS5003;51715;39.432;-77.518;2022-09-03T13:16:48;3;3;
65012;PMS5003;51715;39.432;-77.518;2022-09-03T13:19:31;4;4;
65012;PMS5003;51715;39.432;-77.518;2022-09-03T13:22:11;5;5;
65012;PMS5003;51715;39.432;-77.518;2022-09-03T13:24:54;2;2;
65012;PMS5003;51715;39.432;-77.518;2022-09-03T13:27:31;3;3;
65012;PMS5003;51715;39.432;-77.518;2022-09-03T13:30:07;4;4;
65012;PMS5003;51715;39.432;-77.518;2022-09-03T13:32:42;6;5;
65012;PMS5003;51715;39.432;-77.518;2022-09-03T13:35:22;6;6;
65012;PMS5003;51715;39.432;-77.518;2022-09-03T13:37:58;9;5;
65012;PMS5003;51715;39.432;-77.518;2022-09-03T13:40:34;4;4;
65012;PMS5003;51715;39.432;-77.518;2022-09-03T13:43:11;3;3;
65012;PMS5003;51715;39.432;-77.518;2022-09-03T13:45:50;5;5;
65012;PMS5003;51715;39.432;-77.518;2022-09-03T13:48:26;5;5;
65012;PMS5003;51715;39.432;-77.518;2022-09-03T13:51:03;3;3;
65012;PMS5003;51715;39.432;-77.518;2022-09-03T13:53:41;3;3;
65012;PMS5003;51715;39.432;-77.518;2022-09-03T13:56:20;3;3;
65012;PMS5003;51715;39.432;-77.518;2022-09-03T13:58:56;6;6;
65012;PMS5003;51715;39.432;-77.518;2022-09-03T14:01:35;3;3;
65012;PMS5003;51715;39.432;-77.518;2022-09-03T14:04:21;4;4;
65012;PMS5003;51715;39.432;-77.518;2022-09-03T14:07:00;3;3;
65012;PMS5003;51715;39.432;-77.518;2022-09-03T14:09:36;9;8;
65012;PMS5003;51715;39.432;-77.518;2022-09-03T14:12:14;5;5;
65012;PMS5003;51715;39.432;-77.518;2022-09-03T14:14:50;3;3;
65012;PMS5003;51715;39.432;-77.518;2022-09-03T14:17:25;5;5;
65012;PMS5003;51715;39.432;-77.518;2022-09-03T14:20:06;6;6;
65012;PMS5003;51715;39.432;-77.518;2022-09-03T14:22:42;5;5;
65012;PMS5003;51715;39.432;-77.518;2022-09-03T14:25:18;5;5;
65012;PMS5003;51715;39.432;-77.518;2022-09-03T14:27:49;7;5;
65012;PMS5003;51715;39.432;-77.518;2022-09-03T14:30:19;5;4;
65012;PMS5003;51715;39.432;-77.518;2022-09-03T14:33:02;3;3;
65012;PMS5003;51715;39.432;-77.518;2022-09-03T14:35:42;5;4;
65012;PMS5003;51715;39.432;-77.518;2022-09-03T14:38:58;5;5;
65012;PMS5003;51715;39.432;-77.518;2022-09-03T14:41:46;5;5;
65012;PMS5003;51715;39.432;-77.518;2022-09-03T14:44:35;5;5;
65012;PMS5003;51715;39.432;-77.518;2022-09-03T14:47:21;6;6;
65012;PMS5003;51715;39.432;-77.518;2022-09-03T14:50:04;6;6;
65012;PMS5003;51715;39.432;-77.518;2022-09-03T14:52:57;6;5;
65012;PMS5003;51715;39.432;-77.518;2022-09-03T14:55:42;3;3;
65012;PMS5003;51715;39.432;-77.518;2022-09-03T14:58:33;7;6;
65012;PMS5003;51715;39.432;-77.518;2022-09-03T15:01:10;4;4;
65012;PMS5003;51715;39.432;-77.518;2022-09-03T15:03:48;8;7;
65012;PMS5003;51715;39.432;-77.518;2022-09-03T15:06:34;8;8;
65012;PMS5003;51715;39.432;-77.518;2022-09-03T15:09:16;6;6;
65012;PMS5003;51715;39.432;-77.518;2022-09-03T15:11:55;8;8;
65012;PMS5003;51715;39.432;-77.518;2022-09-03T15:14:28;11;9;
65012;PMS5003;51715;39.432;-77.518;2022-09-03T15:17:16;9;9;
65012;PMS5003;51715;39.432;-77.518;2022-09-03T15:20:02;11;8;
65012;PMS5003;51715;39.432;-77.518;2022-09-03T15:22:48;10;7;
65012;PMS5003;51715;39.432;-77.518;2022-09-03T15:25:38;6;6;
65012;PMS5003;51715;39.432;-77.518;2022-09-03T15:28:18;6;6;
65012;PMS5003;51715;39.432;-77.518;2022-09-03T15:30:58;11;10;
65012;PMS5003;51715;39.432;-77.518;2022-09-03T15:33:33;7;7;
65012;PMS5003;51715;39.432;-77.518;2022-09-03T15:36:13;7;6;
65012;PMS5003;51715;39.432;-77.518;2022-09-03T15:38:47;8;8;
65012;PMS5003;51715;39.432;-77.518;2022-09-03T15:41:27;12;12;
65012;PMS5003;51715;39.432;-77.518;2022-09-03T15:44:04;10;9;
65012;PMS5003;51715;39.432;-77.518;2022-09-03T15:46:37;8;8;
65012;PMS5003;51715;39.432;-77.518;2022-09-03T15:49:19;8;8;
65012;PMS5003;51715;39.432;-77.518;2022-09-03T15:52:07;7;7;
65012;PMS5003;51715;39.432;-77.518;2022-09-03T15:54:47;8;8;
65012;PMS5003;51715;39.432;-77.518;2022-09-03T15:57:24;10;9;
65012;PMS5003;51715;39.432;-77.518;2022-09-03T15:59:57;8;8;
65012;PMS5003;51715;39.432;-77.518;2022-09-03T16:02:32;9;9;
65012;PMS5003;51715;39.432;-77.518;2022-09-03T16:05:09;8;8;
65012;PMS5003;51715;39.432;-77.518;2022-09-03T16:07:47;12;12;
65012;PMS5003;51715;39.432;-77.518;2022-09-03T16:10:34;11;10;
65012;PMS5003;51715;39.432;-77.518;2022-09-03T16:13:19;10;10;
65012;PMS5003;51715;39.432;-77.518;2022-09-03T16:16:01;9;8;
65012;PMS5003;51715;39.432;-77.518;2022-09-03T16:18:32;11;9;
65012;PMS5003;51715;39.432;-77.518;2022-09-03T16:21:07;10;10;
65012;PMS5003;51715;39.432;-77.518;2022-09-03T16:23:45;10;10;
65012;PMS5003;51715;39.432;-77.518;2022-09-03T16:26:20;18;17;
65012;PMS5003;51715;39.432;-77.518;2022-09-03T16:28:59;10;10;
65012;PMS5003;51715;39.432;-77.518;2022-09-03T16:31:39;13;13;
65012;PMS5003;51715;39.432;-77.518;2022-09-03T16:34:18;6;6;
65012;PMS5003;51715;39.432;-77.518;2022-09-03T16:36:58;10;10;
65012;PMS5003;51715;39.432;-77.518;2022-09-03T16:39:44;10;9;
65012;PMS5003;51715;39.432;-77.518;2022-09-03T16:42:23;10;10;
65012;PMS5003;51715;39.432;-77.518;2022-09-03T16:45:00;12;11;
65012;PMS5003;51715;39.432;-77.518;2022-09-03T16:47:39;12;12;
65012;PMS5003;51715;39.432;-77.518;2022-09-03T16:50:21;14;14;
65012;PMS5003;51715;39.432;-77.518;2022-09-03T16:53:00;16;16;
65012;PMS5003;51715;39.432;-77.518;2022-09-03T16:55:44;12;12;
65012;PMS5003;51715;39.432;-77.518;2022-09-03T16:58:25;11;11;
65012;PMS5003;51715;39.432;-77.518;2022-09-03T17:01:09;12;12;
65012;PMS5003;51715;39.432;-77.518;2022-09-03T17:03:57;12;12;
65012;PMS5003;51715;39.432;-77.518;2022-09-03T17:06:57;14;13;